UAAALGRP

Guest
Details From UAAA - Almaty
To LGRP - Diagoras
Flight Number -
Tags Generated
Created
Modified
Stats Distance 2,262 nm / 4,189 km
Max Altitude 0 ft / 0 m
Waypoints 6
Social Downloads 0
Likes 0
Share VATSIM

Download

Looking for another format? Having issues loading an existing format? Contact us
Advertisement - Login to hide

Notes

Generated

Route

UAAA AKUKU KUFAN FXTRT ROS LGRP

ID Type Via Altitude Latitude Longitude Leg Dist Tot Dist Heading (true) Name
O UAAA APT - 0 ft / 0 m 43.34096˚ 77.01807˚ - 0 nm - -
AKUKU FIX - 0 ft / 0 m 42.84333˚ 51.08583˚ 1133 nm 1133 nm 277° / 260° -
KUFAN FIX - 0 ft / 0 m 41.95500˚ 46.28556˚ 219 nm 1352 nm 258° / 254° -
FXTRT FIX - 0 ft / 0 m 38.24818˚ 32.73810˚ 660 nm 2012 nm 255° / 246° -
ROS NDB - 0 ft / 0 m 36.41833˚ 28.11806˚ 246 nm 2259 nm 245° / 242° RODOS NDB
O LGRP APT - 0 ft / 0 m 36.40034˚ 28.06887˚ 2 nm 2261 nm 246° / 246° -

Altitude Profile

Advertisement - Login to hide

Weather


0- 5 10 15 20 25 30 35+ Temperature / ° C

Clouds and Precipitation
Forecast for 2018-05-20 18:00 UTC. Updated an hour ago

Ground ~20,000 ft ~40,000 ft Winds

UAAA

Details ICAO UAAA (ALA)
Name Almaty Intl
Region Kazakhstan and Kyrgyzstan
Timezone Asia/Almaty (UTC+6.0)
Stats Elevation 2,234 ft / 681 m (AMSL)
Location 43.355235° 77.044570°
Runways 2
Magnetic Variation 5.181° E

METAR

UAAA 201600Z 21002MPS 9999 FEW050 SCT200 13/M01 Q1023 R23L/CLRD65 NOSIG

Decode

TAF

TAF UAAA 201100Z 2012/2112 32005MPS 9999 SCT050CB BKN100 TX22/2109Z TN07/2101Z TEMPO 2012/2018 14005MPS 3000 BR FU BECMG 2101/2102 04006MPS

Decode

Departure Runways

ID Width Length Bearing (true) Bearing (mag) Surface Threshold Offset Overrun Length
05L 200 ft / 61 m 14,778 ft / 4,504 m 55.73° 50.55° Concrete 0 ft / 0 m 325 ft / 99 m
05R 148 ft / 45 m 14,408 ft / 4,392 m 55.72° 50.54° Asphalt 0 ft / 0 m 226 ft / 69 m
23L 148 ft / 45 m 14,408 ft / 4,392 m 235.75° 230.57° Asphalt 0 ft / 0 m 226 ft / 69 m
23R 200 ft / 61 m 14,778 ft / 4,504 m 235.76° 230.58° Concrete 0 ft / 0 m 390 ft / 119 m

LGRP

Details ICAO LGRP (RHO)
Name DIAGORAS
Region Greece
Timezone Europe/Athens (UTC+3.0)
Stats Elevation 17 ft / 5 m (AMSL)
Location 36.405420° 28.086193°
Runways 1
Magnetic Variation 4.821° E

METAR

LGRP 201550Z 25012KT 9999 FEW018 26/17 Q1010 NOSIG

Decode

TAF

TAF LGRP 201100Z 2012/2112 25010KT 9999 FEW020 TEMPO 2012/2021 25015KT

Decode

Destination Runways

ID Width Length Bearing (true) Bearing (mag) Surface Threshold Offset Overrun Length
07 148 ft / 45 m 10,830 ft / 3,301 m 69.97° 65.15° Asphalt 0 ft / 0 m 0 ft / 0 m
25 148 ft / 45 m 10,830 ft / 3,301 m 249.99° 245.17° Asphalt 0 ft / 0 m 0 ft / 0 m

Approach Navaids

Runway Type Ident Frequency Range Bearing (true) Bearing (mag) Slope Elevation
25 Localiser IRDS 110.30 MHz 18 nm / 33 km 250.45° 245.63° - 17 ft / 5 m (AMSL)
25 Glidescope IRDS 110.30 MHz 10 nm / 19 km 249.98° 245.16° 3.00° 17 ft / 5 m (AMSL)

Popular Alternatives